Time;durP1;ratioP1;P1;durP2;ratioP2;P2;SDS_P1;SDS_P2;PMS_P1;PMS_P2;Temp;Humidity;BMP_temperature;BMP_pressure;BME280_temperature;BME280_humidity;BME280_pressure;Samples;Min_cycle;Max_cycle;Signal;HPM_P1;HPM_P2
2022/12/03 00:00:33;;;;;;;53.05;18.42;;;2.40;99.90;;;;;;5042964;28;20029;-68
2022/12/03 00:02:59;;;;;;;56.00;19.17;;;2.40;99.90;;;;;;5040337;28;20037;-69
2022/12/03 00:05:25;;;;;;;52.17;17.48;;;2.40;99.90;;;;;;5030332;28;20029;-71
2022/12/03 00:07:50;;;;;;;52.80;17.58;;;2.50;99.90;;;;;;5034119;28;20086;-69
2022/12/03 00:10:16;;;;;;;50.30;18.40;;;2.50;99.90;;;;;;5043341;28;20112;-70
2022/12/03 00:12:42;;;;;;;51.72;18.55;;;2.50;99.90;;;;;;5030811;28;20049;-67
2022/12/03 00:15:08;;;;;;;51.92;18.08;;;2.40;99.90;;;;;;5039512;28;20041;-69
2022/12/03 00:17:34;;;;;;;48.75;16.52;;;2.40;99.90;;;;;;5042107;28;20098;-69
2022/12/03 00:20:00;;;;;;;46.03;16.42;;;2.40;99.90;;;;;;5045311;28;20061;-68
2022/12/03 00:22:25;;;;;;;52.22;17.40;;;2.40;99.90;;;;;;5048720;28;20397;-71
2022/12/03 00:24:51;;;;;;;46.45;16.58;;;2.40;99.90;;;;;;5042454;28;20542;-68
2022/12/03 00:27:16;;;;;;;50.83;17.38;;;2.30;99.90;;;;;;5029567;28;20042;-68
2022/12/03 00:29:42;;;;;;;51.78;17.95;;;2.40;99.90;;;;;;5044357;28;20029;-69
2022/12/03 00:32:08;;;;;;;46.88;16.48;;;2.40;99.90;;;;;;5028380;28;20038;-69
2022/12/03 00:34:33;;;;;;;46.47;16.00;;;2.40;99.90;;;;;;5044010;28;20025;-67
2022/12/03 00:36:59;;;;;;;47.58;16.83;;;2.50;99.90;;;;;;5033552;28;20045;-68
2022/12/03 00:39:24;;;;;;;49.28;16.77;;;2.40;99.90;;;;;;5039615;28;20060;-68
2022/12/03 00:41:50;;;;;;;52.67;18.10;;;2.50;99.90;;;;;;5023376;28;20026;-69
2022/12/03 00:44:16;;;;;;;47.97;16.58;;;2.40;99.90;;;;;;5028473;28;20408;-67
2022/12/03 00:46:42;;;;;;;45.88;17.65;;;2.40;99.90;;;;;;5027813;28;20038;-69
2022/12/03 00:49:08;;;;;;;50.28;16.85;;;2.40;99.90;;;;;;5038641;28;20090;-67
2022/12/03 00:51:34;;;;;;;50.60;17.20;;;2.40;99.90;;;;;;5045354;28;20080;-66
2022/12/03 00:54:00;;;;;;;53.45;17.38;;;2.30;99.90;;;;;;5039309;28;20045;-68
2022/12/03 00:56:26;;;;;;;55.03;18.00;;;2.40;99.90;;;;;;5030451;28;20033;-69
2022/12/03 00:58:51;;;;;;;54.40;18.10;;;2.40;99.90;;;;;;5032129;28;20806;-68
2022/12/03 01:01:17;;;;;;;48.97;17.88;;;2.30;99.90;;;;;;5049248;28;20060;-68
2022/12/03 01:03:43;;;;;;;52.53;18.33;;;2.40;99.90;;;;;;5043957;28;20362;-68
2022/12/03 01:06:08;;;;;;;53.58;18.73;;;2.40;99.90;;;;;;5038432;28;20025;-68
2022/12/03 01:08:34;;;;;;;52.97;18.15;;;2.40;99.90;;;;;;5042400;28;20037;-68
2022/12/03 01:11:00;;;;;;;55.20;19.02;;;2.40;99.90;;;;;;5045256;28;20029;-69
2022/12/03 01:13:25;;;;;;;51.00;18.15;;;2.40;99.90;;;;;;5035277;28;20399;-68
2022/12/03 01:15:51;;;;;;;56.85;19.08;;;2.40;99.90;;;;;;5032029;28;20457;-67
2022/12/03 01:18:16;;;;;;;56.65;18.45;;;2.40;99.90;;;;;;5043736;28;20409;-68
2022/12/03 01:20:42;;;;;;;53.00;19.17;;;2.50;99.90;;;;;;5028190;28;20033;-69
2022/12/03 01:23:08;;;;;;;58.33;19.42;;;2.50;99.90;;;;;;5042613;28;20059;-67
2022/12/03 01:25:34;;;;;;;56.45;19.35;;;2.50;99.90;;;;;;5047104;28;20078;-70
2022/12/03 01:27:59;;;;;;;58.95;19.90;;;2.60;99.90;;;;;;5033158;28;20044;-69
2022/12/03 01:30:25;;;;;;;57.05;18.70;;;2.60;99.90;;;;;;5027888;28;20139;-69
2022/12/03 01:32:50;;;;;;;59.10;20.05;;;2.60;99.90;;;;;;5038781;28;20043;-69
2022/12/03 01:35:16;;;;;;;56.28;19.13;;;2.60;99.90;;;;;;5034158;28;20029;-68
2022/12/03 01:37:42;;;;;;;58.72;20.02;;;2.60;99.90;;;;;;5025339;28;20045;-68
2022/12/03 01:40:11;;;;;;;56.88;19.80;;;2.60;99.90;;;;;;5040507;28;20509;-69
2022/12/03 01:42:40;;;;;;;55.80;19.50;;;2.60;99.90;;;;;;5040771;28;20087;-68
2022/12/03 01:45:10;;;;;;;54.25;19.83;;;2.60;99.90;;;;;;5036402;28;20425;-68
2022/12/03 01:47:37;;;;;;;65.18;20.40;;;2.60;99.90;;;;;;5037160;28;20044;-69
2022/12/03 01:50:02;;;;;;;61.53;19.38;;;2.50;99.90;;;;;;5042469;28;20037;-69
2022/12/03 01:52:31;;;;;;;66.22;20.75;;;2.50;99.90;;;;;;5044801;28;20551;-69
2022/12/03 01:54:59;;;;;;;82.00;22.98;;;2.50;99.90;;;;;;5041019;28;20029;-68
2022/12/03 01:57:29;;;;;;;91.13;24.92;;;2.50;99.90;;;;;;5046933;28;20485;-66
2022/12/03 01:59:56;;;;;;;77.20;23.38;;;2.50;99.90;;;;;;5035798;28;20033;-68
2022/12/03 02:02:26;;;;;;;73.22;21.92;;;2.50;99.90;;;;;;5029064;28;20128;-68
2022/12/03 02:04:52;;;;;;;58.70;19.37;;;2.50;99.90;;;;;;5030372;28;20030;-68
2022/12/03 02:07:30;;;;;;;60.40;19.08;;;2.60;99.90;;;;;;5044521;28;20037;-68
2022/12/03 02:09:59;;;;;;;61.78;20.50;;;2.50;99.90;;;;;;5022693;28;20025;-68
2022/12/03 02:12:30;;;;;;;61.47;19.10;;;2.50;99.90;;;;;;5038550;28;20056;-68
2022/12/03 02:14:57;;;;;;;61.00;20.23;;;2.50;99.90;;;;;;5037914;28;20563;-70
2022/12/03 02:17:22;;;;;;;62.35;21.27;;;2.50;99.90;;;;;;5026514;28;20095;-68
2022/12/03 02:19:49;;;;;;;62.83;20.75;;;2.60;99.90;;;;;;5025142;28;20038;-68
2022/12/03 02:22:36;;;;;;;59.25;18.65;;;2.60;99.90;;;;;;5043407;28;20037;-69
2022/12/03 02:25:11;;;;;;;60.05;19.25;;;2.60;99.90;;;;;;5033022;28;20033;-69
2022/12/03 02:27:36;;;;;;;60.03;20.60;;;2.60;99.90;;;;;;5033627;28;20120;-72
2022/12/03 02:30:04;;;;;;;55.47;17.88;;;2.50;99.90;;;;;;5045759;28;20120;-69
2022/12/03 02:32:29;;;;;;;61.42;20.98;;;2.60;99.90;;;;;;5040847;28;20111;-69
2022/12/03 02:34:55;;;;;;;71.35;20.90;;;2.60;99.90;;;;;;5051636;28;20104;-68
2022/12/03 02:37:33;;;;;;;60.40;19.55;;;2.60;99.90;;;;;;5046331;28;20036;-68
2022/12/03 02:40:10;;;;;;;62.28;20.65;;;2.70;99.90;;;;;;5051793;28;20111;-69
2022/12/03 02:42:36;;;;;;;70.22;22.08;;;2.60;99.90;;;;;;5032977;28;20707;-71
2022/12/03 02:45:13;;;;;;;62.90;20.98;;;2.60;99.90;;;;;;5038084;28;20410;-69
2022/12/03 02:47:45;;;;;;;62.92;19.80;;;2.70;99.90;;;;;;5039568;28;20048;-69
2022/12/03 02:50:16;;;;;;;67.80;22.08;;;2.70;99.90;;;;;;5048557;28;20025;-69
2022/12/03 02:52:45;;;;;;;69.72;21.27;;;2.60;99.90;;;;;;5031060;28;20065;-68
2022/12/03 02:55:13;;;;;;;73.53;21.05;;;2.70;99.90;;;;;;5029393;28;20029;-69
2022/12/03 02:57:39;;;;;;;69.55;21.67;;;2.70;99.90;;;;;;5042771;28;20029;-68
2022/12/03 03:00:06;;;;;;;69.68;21.88;;;2.70;99.90;;;;;;5031759;28;20025;-69
2022/12/03 03:02:33;;;;;;;72.13;21.70;;;2.70;99.90;;;;;;5013229;28;20670;-69
2022/12/03 03:04:59;;;;;;;72.55;21.13;;;2.70;99.90;;;;;;5040188;28;20601;-69
2022/12/03 03:07:25;;;;;;;73.90;23.45;;;2.70;99.90;;;;;;5048026;28;20041;-68
2022/12/03 03:09:50;;;;;;;77.32;20.60;;;2.70;99.90;;;;;;5037645;28;20025;-69
2022/12/03 03:12:16;;;;;;;72.88;22.23;;;2.70;99.90;;;;;;5048437;28;20053;-69
2022/12/03 03:14:42;;;;;;;71.97;21.77;;;2.70;99.90;;;;;;5034326;28;20055;-69
2022/12/03 03:17:07;;;;;;;68.47;21.75;;;2.70;99.90;;;;;;5031728;28;20428;-68
2022/12/03 03:19:33;;;;;;;69.47;21.33;;;2.70;99.90;;;;;;5047175;28;20025;-69
2022/12/03 03:21:59;;;;;;;78.72;23.50;;;2.70;99.90;;;;;;5042722;28;20207;-69
2022/12/03 03:24:25;;;;;;;77.88;23.25;;;2.70;99.90;;;;;;5030701;28;20033;-69
2022/12/03 03:26:51;;;;;;;79.00;24.25;;;2.70;99.90;;;;;;5032335;28;20482;-69
2022/12/03 03:29:17;;;;;;;76.30;22.02;;;2.60;99.90;;;;;;5044461;28;20036;-68
2022/12/03 03:31:44;;;;;;;79.82;24.52;;;2.60;99.90;;;;;;5047765;28;20555;-70
2022/12/03 03:34:11;;;;;;;72.93;23.85;;;2.60;99.90;;;;;;5048497;28;20032;-69
2022/12/03 03:36:37;;;;;;;82.75;25.15;;;2.70;99.90;;;;;;5030247;28;20025;-69
2022/12/03 03:39:04;;;;;;;89.85;24.25;;;2.60;99.90;;;;;;5045431;28;20041;-69
2022/12/03 03:41:31;;;;;;;76.78;23.08;;;2.60;99.90;;;;;;5050676;28;20025;-70
2022/12/03 03:43:57;;;;;;;83.00;23.42;;;2.60;99.90;;;;;;5046264;28;20038;-69
2022/12/03 03:46:23;;;;;;;81.60;24.02;;;2.60;99.90;;;;;;5036873;28;21179;-68
2022/12/03 03:48:49;;;;;;;77.97;22.83;;;2.60;99.90;;;;;;5036727;28;20052;-68
2022/12/03 03:51:17;;;;;;;82.18;24.77;;;2.60;99.90;;;;;;5043089;28;20029;-68
2022/12/03 03:53:49;;;;;;;82.75;25.08;;;2.60;99.90;;;;;;5046725;28;20056;-72
2022/12/03 03:56:19;;;;;;;75.93;23.88;;;2.60;99.90;;;;;;5035079;28;20037;-69
2022/12/03 03:58:45;;;;;;;76.80;24.17;;;2.60;99.90;;;;;;5048300;28;20061;-70
2022/12/03 04:01:12;;;;;;;77.63;23.63;;;2.70;99.90;;;;;;5034077;28;20110;-68
2022/12/03 04:03:38;;;;;;;78.55;24.67;;;2.70;99.90;;;;;;5028865;28;20033;-70
2022/12/03 04:06:04;;;;;;;75.30;23.05;;;2.60;99.90;;;;;;5029696;28;20029;-69
2022/12/03 04:08:30;;;;;;;86.55;23.95;;;2.60;99.90;;;;;;5041299;28;20091;-69
2022/12/03 04:13:40;;;;;;;86.22;23.85;;;2.60;99.90;;;;;;5042421;28;20056;-72
2022/12/03 04:16:06;;;;;;;85.75;25.10;;;2.60;99.90;;;;;;5039259;28;20387;-69
2022/12/03 04:18:52;;;;;;;83.10;25.30;;;2.60;99.90;;;;;;5047439;28;20037;-68
2022/12/03 04:24:06;;;;;;;83.82;26.10;;;2.50;99.90;;;;;;5028314;28;20060;-68
2022/12/03 04:29:16;;;;;;;85.10;24.52;;;2.50;99.90;;;;;;5036101;28;20044;-68
2022/12/03 04:37:11;;;;;;;79.93;25.35;;;2.60;99.90;;;;;;5043889;28;20083;-68
2022/12/03 04:39:37;;;;;;;85.38;26.13;;;2.60;99.90;;;;;;5028160;28;20033;-68
2022/12/03 04:42:03;;;;;;;84.05;26.52;;;2.50;99.90;;;;;;5028965;28;20021;-69
2022/12/03 04:44:32;;;;;;;82.50;25.98;;;2.50;99.90;;;;;;5037665;28;20037;-69
2022/12/03 04:47:05;;;;;;;86.85;26.40;;;2.40;99.90;;;;;;5028549;28;20036;-68
2022/12/03 04:49:31;;;;;;;85.88;25.55;;;2.50;99.90;;;;;;5031668;28;20037;-70
2022/12/03 04:51:57;;;;;;;83.80;26.33;;;2.40;99.90;;;;;;5034805;28;20025;-68
2022/12/03 04:54:22;;;;;;;86.07;27.55;;;2.40;99.90;;;;;;5031636;28;20544;-70
2022/12/03 04:56:48;;;;;;;88.97;28.48;;;2.40;99.90;;;;;;5039508;28;20115;-68
2022/12/03 04:59:14;;;;;;;89.55;25.80;;;2.40;99.90;;;;;;5047517;28;20083;-69
2022/12/03 05:01:39;;;;;;;88.43;26.88;;;2.40;99.90;;;;;;5033967;28;20180;-69
2022/12/03 05:04:05;;;;;;;83.20;26.02;;;2.40;99.90;;;;;;5044657;28;20716;-68
2022/12/03 05:06:31;;;;;;;89.28;26.83;;;2.40;99.90;;;;;;5047973;28;20528;-68
2022/12/03 05:08:57;;;;;;;92.43;27.83;;;2.40;99.90;;;;;;5042856;28;20040;-66
2022/12/03 05:11:23;;;;;;;83.30;25.63;;;2.40;99.90;;;;;;5035053;28;20052;-69
2022/12/03 05:13:50;;;;;;;85.25;25.55;;;2.40;99.90;;;;;;5027918;28;20084;-69
2022/12/03 05:16:15;;;;;;;82.85;26.05;;;2.40;99.90;;;;;;5033892;28;20032;-67
2022/12/03 05:18:41;;;;;;;76.25;24.98;;;2.40;99.90;;;;;;5036883;28;20033;-69
2022/12/03 05:21:07;;;;;;;87.28;26.88;;;2.40;99.90;;;;;;5027840;28;20030;-68
2022/12/03 05:23:32;;;;;;;82.63;25.02;;;2.40;99.90;;;;;;5028684;28;20466;-69
2022/12/03 05:25:58;;;;;;;84.82;25.30;;;2.40;99.90;;;;;;5041968;28;20033;-68
2022/12/03 05:28:23;;;;;;;79.60;26.77;;;2.40;99.90;;;;;;5039938;28;20045;-66
2022/12/03 05:30:50;;;;;;;76.75;24.58;;;2.40;99.90;;;;;;5029296;28;20095;-69
2022/12/03 05:33:15;;;;;;;76.63;25.40;;;2.40;99.90;;;;;;5041991;28;20043;-69
2022/12/03 05:35:41;;;;;;;82.38;24.25;;;2.40;99.90;;;;;;5028619;28;20025;-69
2022/12/03 05:38:07;;;;;;;81.65;26.42;;;2.40;99.90;;;;;;5045209;28;20056;-68
2022/12/03 05:40:32;;;;;;;91.10;28.33;;;2.40;99.90;;;;;;5032358;28;20042;-69
2022/12/03 05:43:00;;;;;;;74.53;22.48;;;2.50;99.90;;;;;;5027052;28;20036;-68
2022/12/03 05:45:30;;;;;;;75.43;24.00;;;2.40;99.90;;;;;;5037264;28;20473;-69
2022/12/03 05:47:57;;;;;;;70.88;22.52;;;2.40;99.90;;;;;;5045376;28;20041;-69
2022/12/03 05:50:27;;;;;;;74.57;22.50;;;2.50;99.90;;;;;;5045954;28;20064;-69
2022/12/03 05:52:52;;;;;;;70.18;21.58;;;2.40;99.90;;;;;;5046074;28;20056;-70
2022/12/03 05:55:18;;;;;;;62.65;20.17;;;2.40;99.90;;;;;;5042587;28;20280;-69
2022/12/03 05:57:45;;;;;;;59.22;20.02;;;2.40;99.90;;;;;;5046387;28;20112;-68
2022/12/03 06:00:20;;;;;;;59.92;19.90;;;2.40;99.90;;;;;;5044076;28;20033;-67
2022/12/03 06:02:46;;;;;;;62.08;18.75;;;2.30;99.90;;;;;;5045380;28;20120;-71
2022/12/03 06:05:14;;;;;;;61.50;20.17;;;2.40;99.90;;;;;;5042418;28;20061;-67
2022/12/03 06:07:40;;;;;;;56.88;17.17;;;2.40;99.90;;;;;;5041554;28;20033;-67
2022/12/03 06:10:14;;;;;;;47.83;16.67;;;2.40;99.90;;;;;;5045044;28;20115;-68
2022/12/03 06:12:41;;;;;;;45.63;16.48;;;2.40;99.90;;;;;;5041260;28;20056;-67
2022/12/03 06:15:08;;;;;;;46.47;16.00;;;2.40;99.90;;;;;;5032762;28;20393;-68
2022/12/03 06:17:34;;;;;;;49.85;18.17;;;2.40;99.90;;;;;;5030465;28;20116;-68
2022/12/03 06:19:59;;;;;;;47.88;17.85;;;2.40;99.90;;;;;;5024450;28;20646;-68
2022/12/03 06:22:25;;;;;;;45.78;16.80;;;2.40;99.90;;;;;;5037310;28;20074;-68
2022/12/03 06:24:51;;;;;;;46.17;17.27;;;2.40;99.90;;;;;;5043457;28;20466;-71
2022/12/03 06:27:16;;;;;;;47.22;16.42;;;2.40;99.90;;;;;;5043272;28;20041;-65
2022/12/03 06:29:42;;;;;;;47.60;16.75;;;2.40;99.90;;;;;;5043088;28;20060;-68
2022/12/03 06:32:08;;;;;;;47.25;17.88;;;2.30;99.90;;;;;;5038229;28;20021;-68
2022/12/03 06:34:34;;;;;;;46.45;17.35;;;2.30;99.90;;;;;;5042419;28;20033;-67
2022/12/03 06:36:59;;;;;;;47.78;18.08;;;2.30;99.90;;;;;;5042021;28;20433;-68
2022/12/03 06:39:25;;;;;;;50.28;18.17;;;2.30;99.90;;;;;;5034335;28;20112;-68
2022/12/03 06:41:51;;;;;;;60.97;20.65;;;2.30;99.90;;;;;;5027562;28;20076;-70
2022/12/03 06:44:16;;;;;;;49.47;18.90;;;2.40;99.90;;;;;;5047915;28;20033;-68
2022/12/03 06:46:42;;;;;;;49.20;17.85;;;2.30;99.90;;;;;;5038480;28;20061;-69
2022/12/03 06:49:08;;;;;;;50.80;18.13;;;2.40;99.90;;;;;;5039222;28;20148;-68
2022/12/03 06:51:34;;;;;;;47.78;17.70;;;2.30;99.90;;;;;;5034558;28;20049;-68
2022/12/03 06:54:01;;;;;;;52.05;17.10;;;2.30;99.90;;;;;;5035693;28;20022;-66
2022/12/03 06:56:27;;;;;;;49.45;17.70;;;2.20;99.90;;;;;;5029271;28;20037;-67
2022/12/03 06:58:53;;;;;;;53.17;17.52;;;2.20;99.90;;;;;;5037048;28;20079;-72
2022/12/03 07:01:19;;;;;;;55.63;17.80;;;2.20;99.90;;;;;;5025692;28;20087;-68
2022/12/03 07:03:45;;;;;;;60.50;20.77;;;2.10;99.90;;;;;;5028691;28;20025;-68
2022/12/03 07:06:10;;;;;;;54.42;19.45;;;2.20;99.90;;;;;;5037145;28;20033;-69
2022/12/03 07:08:36;;;;;;;52.80;19.48;;;2.20;99.90;;;;;;5044976;28;20112;-68
2022/12/03 07:11:02;;;;;;;53.22;18.05;;;2.20;99.90;;;;;;5033881;28;20037;-67
2022/12/03 07:13:27;;;;;;;57.28;19.25;;;2.20;99.90;;;;;;5025828;28;20061;-69
2022/12/03 07:15:53;;;;;;;52.85;18.42;;;2.20;99.90;;;;;;5027232;28;20489;-72
2022/12/03 07:18:18;;;;;;;56.40;18.08;;;2.20;99.90;;;;;;5027749;28;20120;-69
2022/12/03 07:20:44;;;;;;;55.88;18.35;;;2.10;99.90;;;;;;5038591;28;20029;-68
2022/12/03 07:23:10;;;;;;;51.50;19.02;;;2.10;99.90;;;;;;5050601;28;20393;-68
2022/12/03 07:25:35;;;;;;;52.47;18.63;;;2.10;99.90;;;;;;5049711;28;20037;-69
2022/12/03 07:28:01;;;;;;;50.97;18.23;;;2.10;99.90;;;;;;5039463;28;20163;-66
2022/12/03 07:30:27;;;;;;;60.92;21.58;;;2.10;99.90;;;;;;5034753;28;20057;-68
2022/12/03 07:32:53;;;;;;;53.67;18.90;;;2.10;99.90;;;;;;5030119;28;20028;-71
2022/12/03 07:35:19;;;;;;;57.83;20.23;;;2.10;99.90;;;;;;5028127;28;20040;-69
2022/12/03 07:37:44;;;;;;;53.55;20.13;;;2.10;99.90;;;;;;5034846;28;20033;-68
2022/12/03 07:40:11;;;;;;;61.92;21.95;;;2.00;99.90;;;;;;5031012;28;20037;-69
2022/12/03 07:42:36;;;;;;;58.05;19.67;;;2.00;99.90;;;;;;5042014;28;20044;-67
2022/12/03 07:45:03;;;;;;;64.60;20.90;;;2.00;99.90;;;;;;5039739;28;20790;-68
2022/12/03 07:47:28;;;;;;;63.33;20.95;;;1.90;99.90;;;;;;5030758;28;20552;-68
2022/12/03 07:49:54;;;;;;;59.92;21.60;;;1.90;99.90;;;;;;5034975;28;20024;-71
2022/12/03 07:52:20;;;;;;;72.28;24.27;;;1.80;99.90;;;;;;5042278;28;20056;-69
2022/12/03 07:54:45;;;;;;;72.75;23.05;;;1.80;99.90;;;;;;5049829;28;20463;-65
2022/12/03 07:57:11;;;;;;;57.38;19.80;;;1.80;99.90;;;;;;5024787;28;20029;-67
2022/12/03 07:59:36;;;;;;;61.13;20.13;;;1.80;99.90;;;;;;5028682;28;20029;-67
2022/12/03 08:02:02;;;;;;;51.03;18.00;;;1.80;99.90;;;;;;5028413;28;20033;-67
2022/12/03 08:04:28;;;;;;;49.65;17.73;;;1.80;99.90;;;;;;5033473;28;20518;-67
2022/12/03 08:06:54;;;;;;;57.22;20.40;;;1.70;99.90;;;;;;5030301;28;20200;-71
2022/12/03 08:09:19;;;;;;;56.30;18.58;;;1.80;99.90;;;;;;5028855;28;20120;-66
2022/12/03 08:11:47;;;;;;;54.95;18.25;;;1.80;99.90;;;;;;5042443;28;20457;-67
2022/12/03 08:14:18;;;;;;;53.63;17.83;;;1.80;99.90;;;;;;5035823;28;20038;-69
2022/12/03 08:16:45;;;;;;;57.67;19.60;;;1.70;99.90;;;;;;5038392;28;20088;-68
2022/12/03 08:19:12;;;;;;;59.85;19.55;;;1.70;99.90;;;;;;5045390;28;20036;-67
2022/12/03 08:21:38;;;;;;;59.15;18.90;;;1.70;99.90;;;;;;5042125;28;20037;-67
2022/12/03 08:24:15;;;;;;;59.67;20.33;;;1.60;99.90;;;;;;5031061;28;20033;-67
2022/12/03 08:26:43;;;;;;;62.63;20.05;;;1.70;99.90;;;;;;5031537;28;20166;-67
2022/12/03 08:29:15;;;;;;;59.72;18.58;;;1.70;99.90;;;;;;5034128;28;20037;-67
2022/12/03 08:31:46;;;;;;;71.05;21.60;;;1.70;99.90;;;;;;5034331;28;20029;-67
2022/12/03 08:34:18;;;;;;;61.75;19.27;;;1.70;99.90;;;;;;5026950;28;20621;-67
2022/12/03 08:36:45;;;;;;;62.20;19.23;;;1.60;99.90;;;;;;5036836;28;20358;-68
2022/12/03 08:39:32;;;;;;;68.30;19.77;;;1.70;99.90;;;;;;5047230;28;20037;-67
2022/12/03 08:44:47;;;;;;;56.58;18.40;;;1.70;99.90;;;;;;5020574;28;20095;-71
2022/12/03 08:47:22;;;;;;;72.57;25.58;;;1.70;99.90;;;;;;5028369;28;20034;-69
2022/12/03 08:50:07;;;;;;;54.63;18.15;;;1.70;99.90;;;;;;5028031;28;20040;-68
2022/12/03 08:52:33;;;;;;;58.60;19.85;;;1.80;99.90;;;;;;5028727;28;20083;-69
2022/12/03 08:55:24;;;;;;;59.75;20.20;;;1.80;99.90;;;;;;5027801;28;20029;-71
2022/12/03 08:57:49;;;;;;;60.65;19.35;;;1.80;99.90;;;;;;5027665;28;20115;-67
2022/12/03 09:00:23;;;;;;;58.03;17.42;;;1.80;99.90;;;;;;5027379;28;20462;-68
2022/12/03 09:02:51;;;;;;;59.85;18.85;;;1.70;99.90;;;;;;5048794;28;20040;-68
2022/12/03 09:05:29;;;;;;;76.72;25.77;;;1.70;99.90;;;;;;5034805;28;20055;-68
2022/12/03 09:07:55;;;;;;;79.95;24.75;;;1.70;99.90;;;;;;5055094;28;20378;-68
2022/12/03 09:10:21;;;;;;;73.47;24.50;;;1.70;99.90;;;;;;5021580;28;20040;-69
2022/12/03 09:12:46;;;;;;;62.10;20.58;;;1.80;99.90;;;;;;5032900;28;20052;-68
2022/12/03 09:15:12;;;;;;;60.78;18.83;;;1.80;99.90;;;;;;5026657;28;20056;-70
2022/12/03 09:17:38;;;;;;;76.75;24.73;;;1.80;99.90;;;;;;5027157;28;20041;-67
2022/12/03 09:20:05;;;;;;;61.22;21.48;;;1.80;99.90;;;;;;5028485;28;20732;-68
2022/12/03 09:22:30;;;;;;;63.50;20.20;;;1.80;99.90;;;;;;5028971;28;20025;-67
2022/12/03 09:24:56;;;;;;;67.20;20.38;;;1.80;99.90;;;;;;5028873;28;20044;-68
2022/12/03 09:27:22;;;;;;;71.97;22.40;;;1.80;99.90;;;;;;5026857;28;20104;-66
2022/12/03 09:29:48;;;;;;;78.88;25.58;;;1.80;99.90;;;;;;5027023;28;20037;-67
2022/12/03 09:32:14;;;;;;;59.08;19.33;;;1.80;99.90;;;;;;5028259;28;20470;-67
2022/12/03 09:34:41;;;;;;;56.90;17.75;;;1.80;99.90;;;;;;5027638;28;20026;-67
2022/12/03 09:37:06;;;;;;;56.67;17.35;;;1.80;99.90;;;;;;5027337;28;20021;-67
2022/12/03 09:39:32;;;;;;;62.70;18.83;;;1.80;99.90;;;;;;5027539;28;20175;-67
2022/12/03 09:41:58;;;;;;;57.47;18.83;;;1.90;99.90;;;;;;5028754;28;20034;-65
2022/12/03 09:44:24;;;;;;;62.40;19.10;;;1.90;99.90;;;;;;5027847;28;20033;-68
2022/12/03 09:46:50;;;;;;;60.38;18.73;;;1.90;99.90;;;;;;5027915;28;20597;-67
2022/12/03 09:49:18;;;;;;;62.00;19.58;;;1.90;99.90;;;;;;5027839;28;20037;-67
2022/12/03 09:51:44;;;;;;;62.65;19.90;;;1.80;99.90;;;;;;5028718;28;20036;-67
2022/12/03 09:54:22;;;;;;;55.00;18.23;;;1.80;99.90;;;;;;5027881;28;20467;-67
2022/12/03 09:56:47;;;;;;;60.05;17.33;;;1.80;99.90;;;;;;5027680;28;20036;-67
2022/12/03 09:59:14;;;;;;;67.72;20.30;;;1.80;99.90;;;;;;5027644;28;20104;-67
2022/12/03 10:01:40;;;;;;;63.20;20.30;;;1.90;99.90;;;;;;5028148;28;20517;-67
2022/12/03 10:04:06;;;;;;;79.15;28.75;;;1.90;99.90;;;;;;5027471;28;20095;-68
2022/12/03 10:06:32;;;;;;;60.53;18.77;;;1.90;99.90;;;;;;5027952;28;20085;-68
2022/12/03 10:08:58;;;;;;;64.80;19.08;;;1.90;99.90;;;;;;5027937;28;20099;-67
2022/12/03 10:11:25;;;;;;;61.13;17.38;;;1.90;99.90;;;;;;5027661;28;20052;-66
2022/12/03 10:13:56;;;;;;;58.35;18.13;;;1.90;99.90;;;;;;5028616;28;20061;-68
2022/12/03 10:16:22;;;;;;;62.97;19.88;;;1.90;99.90;;;;;;5026689;28;20055;-67
2022/12/03 10:19:02;;;;;;;66.60;19.70;;;1.90;99.90;;;;;;5015930;28;20084;-72
2022/12/03 10:21:35;;;;;;;61.05;19.88;;;1.80;99.90;;;;;;5028303;28;20034;-68
2022/12/03 10:24:33;;;;;;;76.88;25.35;;;1.90;99.90;;;;;;5022186;28;20461;-68
2022/12/03 10:27:01;;;;;;;68.60;20.25;;;1.90;99.90;;;;;;5038397;28;20493;-67
2022/12/03 10:29:28;;;;;;;66.80;21.33;;;1.90;99.90;;;;;;5047531;28;20064;-67
2022/12/03 10:32:03;;;;;;;55.45;17.75;;;1.90;99.90;;;;;;5042385;28;20518;-69
2022/12/03 10:34:38;;;;;;;71.68;21.30;;;1.90;99.90;;;;;;5027975;28;20127;-69
2022/12/03 10:37:17;;;;;;;68.18;19.17;;;1.90;99.90;;;;;;5030055;28;20035;-71
2022/12/03 10:40:08;;;;;;;63.95;19.23;;;1.90;99.90;;;;;;5028420;28;20499;-67
2022/12/03 10:42:37;;;;;;;161.25;42.58;;;1.90;99.90;;;;;;5033730;28;20071;-67
2022/12/03 10:45:14;;;;;;;69.45;20.88;;;1.90;99.90;;;;;;5033899;28;20129;-71
2022/12/03 10:47:41;;;;;;;72.05;24.08;;;1.90;99.90;;;;;;5027480;28;20044;-68
2022/12/03 10:50:17;;;;;;;63.80;18.67;;;1.90;99.90;;;;;;5027486;28;20061;-69
2022/12/03 10:52:44;;;;;;;61.50;18.45;;;1.90;99.90;;;;;;5043579;28;20037;-69
2022/12/03 10:55:14;;;;;;;58.15;17.80;;;2.00;99.90;;;;;;5044975;28;20625;-65
2022/12/03 10:57:40;;;;;;;;;;;1.90;99.90;;;;;;5030679;28;20033;-69
2022/12/03 11:00:06;;;;;;;55.67;16.08;;;2.00;99.90;;;;;;5045675;28;19916;-70
2022/12/03 11:02:32;;;;;;;61.72;17.02;;;1.90;99.90;;;;;;5051377;28;20112;-67
2022/12/03 11:04:58;;;;;;;61.63;17.17;;;1.80;99.90;;;;;;5038254;28;20124;-66
2022/12/03 11:07:25;;;;;;;48.70;15.00;;;1.80;99.90;;;;;;5029966;28;20875;-68
2022/12/03 11:09:54;;;;;;;57.03;17.45;;;1.80;99.90;;;;;;5029475;28;20076;-67
2022/12/03 11:12:23;;;;;;;53.78;16.60;;;1.80;99.90;;;;;;5029485;28;20072;-67
2022/12/03 11:14:52;;;;;;;56.35;16.95;;;1.90;99.90;;;;;;5038185;28;20049;-67
2022/12/03 11:17:24;;;;;;;56.15;16.00;;;1.90;99.90;;;;;;5029655;28;20040;-68
2022/12/03 11:19:50;;;;;;;56.85;16.38;;;1.80;99.90;;;;;;5034181;28;20088;-67
2022/12/03 11:22:37;;;;;;;57.30;17.02;;;1.80;99.90;;;;;;5040436;28;20091;-66
2022/12/03 11:25:30;;;;;;;57.03;17.02;;;1.80;99.90;;;;;;5040268;28;20037;-67
2022/12/03 11:28:32;;;;;;;61.97;17.38;;;1.80;99.90;;;;;;5040979;28;20075;-68
2022/12/03 11:31:02;;;;;;;55.15;15.48;;;1.90;99.90;;;;;;5032510;28;20049;-67
2022/12/03 11:33:34;;;;;;;56.53;16.17;;;1.90;99.90;;;;;;5031515;28;20086;-67
2022/12/03 11:36:02;;;;;;;57.83;17.27;;;1.80;99.90;;;;;;5035905;28;20112;-67
2022/12/03 11:38:40;;;;;;;57.55;16.55;;;1.80;99.90;;;;;;5050617;28;20241;-68
2022/12/03 11:41:19;;;;;;;72.95;24.73;;;1.80;99.90;;;;;;5048045;28;20390;-72
2022/12/03 11:43:56;;;;;;;73.38;22.90;;;1.90;99.90;;;;;;5049211;28;20044;-67
2022/12/03 11:46:30;;;;;;;62.67;20.17;;;2.00;99.90;;;;;;5033134;28;20138;-67
2022/12/03 11:48:58;;;;;;;57.13;17.35;;;2.00;99.90;;;;;;5030225;28;20083;-67
2022/12/03 11:51:26;;;;;;;54.08;17.73;;;2.00;99.90;;;;;;5045779;28;20479;-67
2022/12/03 11:53:56;;;;;;;76.18;27.40;;;2.00;99.90;;;;;;5030719;28;20123;-66
2022/12/03 11:56:27;;;;;;;57.03;16.33;;;2.00;99.90;;;;;;5048418;28;20033;-67
2022/12/03 11:59:01;;;;;;;49.30;16.60;;;2.00;99.90;;;;;;5046256;28;20536;-67
2022/12/03 12:01:32;;;;;;;54.63;16.30;;;2.00;99.90;;;;;;5010156;28;20052;-67
2022/12/03 12:03:58;;;;;;;56.90;16.83;;;2.00;99.90;;;;;;5029701;28;20562;-67
2022/12/03 12:06:24;;;;;;;54.13;18.50;;;2.00;99.90;;;;;;5027656;28;20116;-67
2022/12/03 12:08:49;;;;;;;55.25;16.35;;;2.10;99.90;;;;;;5030421;28;20060;-67
2022/12/03 12:11:37;;;;;;;53.30;17.30;;;2.10;99.90;;;;;;5029615;28;20045;-66
2022/12/03 12:14:12;;;;;;;42.17;13.60;;;2.00;99.90;;;;;;5030552;28;20060;-67
2022/12/03 12:16:50;;;;;;;41.22;14.60;;;2.00;99.90;;;;;;5031852;28;20372;-64
2022/12/03 12:19:31;;;;;;;48.72;16.60;;;2.00;99.90;;;;;;5039605;28;20450;-68
2022/12/03 12:22:13;;;;;;;57.25;19.13;;;2.00;99.90;;;;;;5028130;28;20045;-67
2022/12/03 12:24:39;;;;;;;51.45;15.50;;;2.00;99.90;;;;;;5031798;28;20036;-67
2022/12/03 12:27:09;;;;;;;61.03;18.38;;;2.00;99.90;;;;;;5019453;28;20017;-65
2022/12/03 12:29:36;;;;;;;47.47;15.00;;;2.10;99.90;;;;;;5047434;28;20056;-65
2022/12/03 12:32:08;;;;;;;50.78;14.90;;;2.00;99.90;;;;;;5033685;28;20057;-68
2022/12/03 12:34:37;;;;;;;54.95;18.55;;;1.90;99.90;;;;;;5035210;28;20029;-68
2022/12/03 12:37:05;;;;;;;47.25;15.68;;;1.90;99.90;;;;;;5030973;28;20181;-67
2022/12/03 12:39:31;;;;;;;46.65;13.38;;;1.90;99.90;;;;;;5023673;28;20032;-67
2022/12/03 12:42:06;;;;;;;55.55;23.77;;;1.90;99.90;;;;;;5037255;28;20033;-67
2022/12/03 12:44:32;;;;;;;42.17;13.77;;;1.90;99.90;;;;;;5030712;28;20679;-66
2022/12/03 12:47:01;;;;;;;44.17;14.45;;;1.90;99.90;;;;;;5026331;28;20037;-67
2022/12/03 12:49:28;;;;;;;89.80;37.05;;;1.80;99.90;;;;;;5045284;28;20433;-66
2022/12/03 12:51:54;;;;;;;41.42;13.23;;;1.90;99.90;;;;;;5045076;28;20040;-67
2022/12/03 12:54:20;;;;;;;44.47;13.90;;;1.80;99.90;;;;;;5034885;28;20033;-67
2022/12/03 12:56:49;;;;;;;37.33;11.80;;;1.80;99.90;;;;;;5035201;28;20470;-66
2022/12/03 12:59:17;;;;;;;38.15;12.95;;;1.70;99.90;;;;;;5038270;28;20066;-70